createdAt,value
2022-10-06T00:00:13.412Z,64.56
2022-10-06T00:01:13.451Z,64.96
2022-10-06T00:02:13.419Z,64.41
2022-10-06T00:03:13.365Z,63.87
2022-10-06T00:04:13.376Z,63.29
2022-10-06T00:05:13.354Z,62.72
2022-10-06T00:06:13.309Z,62.30
2022-10-06T00:07:13.317Z,61.30
2022-10-06T00:08:13.279Z,60.54
2022-10-06T00:09:13.305Z,60.07
2022-10-06T00:10:13.266Z,59.55
2022-10-06T00:11:13.238Z,59.05
2022-10-06T00:12:13.264Z,58.03
2022-10-06T00:13:13.213Z,57.67
2022-10-06T00:14:13.204Z,57.51
2022-10-06T00:15:13.200Z,57.39
2022-10-06T00:16:13.269Z,57.31
2022-10-06T00:17:13.191Z,57.31
2022-10-06T00:18:13.159Z,57.00
2022-10-06T00:19:13.145Z,56.92
2022-10-06T00:20:13.134Z,56.85
2022-10-06T00:21:13.129Z,56.27
2022-10-06T00:22:13.111Z,55.67
2022-10-06T00:23:13.113Z,55.53
2022-10-06T00:24:13.089Z,55.42
2022-10-06T00:25:13.051Z,55.12
2022-10-06T00:26:13.063Z,55.34
2022-10-06T00:27:13.059Z,55.02
2022-10-06T00:28:13.087Z,55.09
2022-10-06T00:29:13.011Z,54.91
2022-10-06T00:30:12.983Z,54.98
2022-10-06T00:31:13.034Z,55.16
2022-10-06T00:32:12.958Z,55.34
2022-10-06T00:33:12.944Z,55.38
2022-10-06T00:34:12.982Z,56.01
2022-10-06T00:35:12.937Z,56.92
2022-10-06T00:36:12.959Z,57.67
2022-10-06T00:37:12.896Z,58.51
2022-10-06T00:38:12.898Z,59.26
2022-10-06T00:39:12.869Z,60.50
2022-10-06T00:40:12.850Z,61.79
2022-10-06T00:41:12.844Z,63.00
2022-10-06T00:42:12.862Z,64.21
2022-10-06T00:43:12.819Z,64.86
2022-10-06T00:44:12.802Z,65.78
2022-10-06T00:45:12.838Z,66.40
2022-10-06T00:46:12.949Z,67.47
2022-10-06T00:47:12.782Z,67.74
2022-10-06T00:48:12.747Z,68.46
2022-10-06T00:49:12.756Z,68.97
2022-10-06T00:50:12.718Z,69.72
2022-10-06T00:51:12.711Z,70.24
2022-10-06T00:52:12.721Z,71.20
2022-10-06T00:53:12.707Z,73.19
2022-10-06T00:54:12.659Z,75.57
2022-10-06T00:55:12.675Z,77.74
2022-10-06T00:56:12.655Z,80.35
2022-10-06T00:57:12.637Z,82.90
2022-10-06T00:58:12.629Z,86.40
2022-10-06T00:59:12.604Z,89.74
2022-10-06T01:00:12.603Z,92.11
2022-10-06T01:01:12.641Z,94.28
2022-10-06T01:02:12.576Z,95.77
2022-10-06T01:03:12.548Z,99.41
2022-10-06T01:04:12.575Z,102.26
2022-10-06T01:05:12.579Z,105.41
2022-10-06T01:06:12.517Z,110.78
2022-10-06T01:07:12.506Z,114.10
2022-10-06T01:08:12.473Z,118.46
2022-10-06T01:09:12.495Z,122.80
2022-10-06T01:10:12.475Z,129.44
2022-10-06T01:11:12.451Z,135.19
2022-10-06T01:12:12.431Z,141.71
2022-10-06T01:13:12.438Z,146.16
2022-10-06T01:14:12.427Z,151.31
2022-10-06T01:15:12.393Z,155.52
2022-10-06T01:16:12.439Z,159.52
2022-10-06T01:17:12.382Z,161.68
2022-10-06T01:18:12.362Z,162.94
2022-10-06T01:19:12.345Z,164.54
2022-10-06T01:20:12.353Z,166.34
2022-10-06T01:21:12.350Z,171.27
2022-10-06T01:22:12.298Z,177.25
2022-10-06T01:23:12.332Z,182.46
2022-10-06T01:24:12.377Z,185.07
2022-10-06T01:25:12.286Z,187.38
2022-10-06T01:26:12.278Z,189.10
2022-10-06T01:27:12.251Z,192.31
2022-10-06T01:28:12.286Z,192.98
2022-10-06T01:29:12.228Z,193.21
2022-10-06T01:30:12.188Z,194.23
2022-10-06T01:31:12.250Z,200.14
2022-10-06T01:32:12.168Z,201.48
2022-10-06T01:33:12.170Z,204.10
2022-10-06T01:34:12.143Z,205.63
2022-10-06T01:35:12.155Z,206.54
2022-10-06T01:36:12.140Z,207.71
2022-10-06T01:37:12.102Z,210.23
2022-10-06T01:38:12.121Z,214.61
2022-10-06T01:39:12.098Z,214.75
2022-10-06T01:40:12.091Z,217.45
2022-10-06T01:41:12.054Z,216.87
2022-10-06T01:42:12.041Z,219.77
2022-10-06T01:43:12.031Z,215.88
2022-10-06T01:44:12.038Z,214.19
2022-10-06T01:45:12.017Z,217.16
2022-10-06T01:46:12.044Z,215.74
2022-10-06T01:47:11.996Z,217.30
2022-10-06T01:48:11.952Z,218.89
2022-10-06T01:49:11.955Z,217.02
2022-10-06T01:50:11.922Z,214.61
2022-10-06T01:51:11.920Z,216.45
2022-10-06T01:52:11.919Z,210.77
2022-10-06T01:53:11.928Z,208.10
2022-10-06T01:54:11.889Z,209.56
2022-10-06T01:55:11.875Z,210.36
2022-10-06T01:56:11.842Z,209.03
2022-10-06T01:57:11.855Z,207.45
2022-10-06T01:58:11.848Z,207.06
2022-10-06T01:59:11.828Z,203.98
2022-10-06T02:00:11.813Z,201.11
2022-10-06T02:01:11.838Z,198.57
2022-10-06T02:02:11.789Z,194.92
2022-10-06T02:03:11.780Z,193.44
2022-10-06T02:04:11.862Z,188.35
2022-10-06T02:05:11.757Z,186.73
2022-10-06T02:06:11.828Z,183.46
2022-10-06T02:07:11.737Z,179.72
2022-10-06T02:08:11.737Z,175.58
2022-10-06T02:09:11.682Z,171.44
2022-10-06T02:10:11.671Z,167.67
2022-10-06T02:11:11.678Z,164.21
2022-10-06T02:12:11.636Z,158.02
2022-10-06T02:13:11.632Z,153.39
2022-10-06T02:14:11.649Z,148.62
2022-10-06T02:15:11.630Z,143.04
2022-10-06T02:16:11.639Z,139.47
2022-10-06T02:17:11.584Z,136.07
2022-10-06T02:18:11.565Z,133.04
2022-10-06T02:19:11.567Z,130.25
2022-10-06T02:20:11.553Z,127.96
2022-10-06T02:21:11.521Z,125.66
2022-10-06T02:22:11.531Z,124.17
2022-10-06T02:23:11.516Z,122.62
2022-10-06T02:24:11.512Z,121.29
2022-10-06T02:25:11.503Z,121.11
2022-10-06T02:26:11.458Z,123.25
2022-10-06T02:27:11.483Z,123.62
2022-10-06T02:28:11.476Z,124.26
2022-10-06T02:29:11.437Z,124.17
2022-10-06T02:30:11.402Z,126.51
2022-10-06T02:31:11.465Z,127.57
2022-10-06T02:32:11.409Z,125.75
2022-10-06T02:33:11.393Z,123.89
2022-10-06T02:34:11.358Z,120.94
2022-10-06T02:35:11.376Z,118.12
2022-10-06T02:36:11.328Z,115.76
2022-10-06T02:37:11.520Z,113.94
2022-10-06T02:38:11.316Z,112.19
2022-10-06T02:39:11.317Z,111.37
2022-10-06T02:40:11.297Z,109.33
2022-10-06T02:41:11.286Z,107.93
2022-10-06T02:42:11.251Z,107.37
2022-10-06T02:43:11.242Z,107.44
2022-10-06T02:44:11.240Z,107.37
2022-10-06T02:45:11.227Z,107.58
2022-10-06T02:46:11.225Z,107.30
2022-10-06T02:47:11.201Z,106.62
2022-10-06T02:48:11.208Z,106.08
2022-10-06T02:49:11.199Z,105.08
2022-10-06T02:50:11.176Z,103.91
2022-10-06T02:51:11.167Z,103.46
2022-10-06T02:52:11.143Z,103.08
2022-10-06T02:53:11.114Z,103.20
2022-10-06T02:54:11.116Z,103.01
2022-10-06T02:55:11.138Z,103.65
2022-10-06T02:56:11.094Z,103.91
2022-10-06T02:57:11.070Z,103.39
2022-10-06T02:58:11.066Z,102.89
2022-10-06T02:59:11.057Z,102.51
2022-10-06T03:00:11.047Z,101.51
2022-10-06T03:01:11.046Z,100.72
2022-10-06T03:02:11.152Z,99.94
2022-10-06T03:03:10.996Z,99.46
2022-10-06T03:04:10.987Z,98.88
2022-10-06T03:05:10.973Z,98.36
2022-10-06T03:06:10.941Z,98.47
2022-10-06T03:07:10.932Z,99.29
2022-10-06T03:08:10.919Z,99.00
2022-10-06T03:09:10.930Z,98.88
2022-10-06T03:10:10.933Z,99.05
2022-10-06T03:11:10.909Z,98.47
2022-10-06T03:12:10.870Z,98.18
2022-10-06T03:13:10.866Z,97.89
2022-10-06T03:14:10.842Z,98.36
2022-10-06T03:15:10.859Z,99.00
2022-10-06T03:16:10.858Z,99.41
2022-10-06T03:17:11.450Z,99.64
2022-10-06T03:18:11.174Z,98.94
2022-10-06T03:19:10.796Z,98.82
2022-10-06T03:20:10.787Z,97.38
2022-10-06T03:21:10.749Z,95.88
2022-10-06T03:22:10.755Z,95.12
2022-10-06T03:23:13.538Z,93.89
2022-10-06T03:24:10.740Z,95.36
2022-10-06T03:25:10.693Z,94.50
2022-10-06T03:26:10.706Z,93.55
2022-10-06T03:27:10.703Z,93.75
2022-10-06T03:28:10.723Z,93.96
2022-10-06T03:29:11.809Z,94.92
2022-10-06T03:30:10.650Z,95.22
2022-10-06T03:31:10.663Z,96.88
2022-10-06T03:32:10.636Z,99.52
2022-10-06T03:33:10.624Z,101.58
2022-10-06T03:34:10.590Z,104.75
2022-10-06T03:35:10.561Z,107.10
2022-10-06T03:36:10.588Z,108.27
2022-10-06T03:37:10.584Z,108.98
2022-10-06T03:38:10.554Z,109.84
2022-10-06T03:39:10.533Z,110.56
2022-10-06T03:40:10.526Z,112.79
2022-10-06T03:41:10.500Z,114.10
2022-10-06T03:42:10.485Z,115.28
2022-10-06T03:43:10.472Z,116.97
2022-10-06T03:44:10.469Z,118.88
2022-10-06T03:45:10.442Z,119.39
2022-10-06T03:46:10.478Z,119.90
2022-10-06T03:47:16.113Z,121.46
2022-10-06T03:48:10.421Z,123.34
2022-10-06T03:49:10.397Z,125.09
2022-10-06T03:50:10.416Z,127.18
2022-10-06T03:51:10.359Z,128.16
2022-10-06T03:52:10.359Z,127.86
2022-10-06T03:53:10.362Z,129.04
2022-10-06T03:54:10.346Z,127.09
2022-10-06T03:55:10.363Z,124.35
2022-10-06T03:56:10.338Z,120.85
2022-10-06T03:57:10.292Z,117.63
2022-10-06T03:58:10.274Z,114.10
2022-10-06T03:59:10.278Z,109.12
2022-10-06T04:00:10.525Z,104.95
2022-10-06T04:01:10.325Z,100.96
2022-10-06T04:02:10.285Z,97.10
2022-10-06T04:03:10.211Z,95.46
2022-10-06T04:04:10.221Z,92.61
2022-10-06T04:05:10.311Z,89.83
2022-10-06T04:06:10.189Z,87.67
2022-10-06T04:07:10.153Z,85.00
2022-10-06T04:08:10.152Z,83.14
2022-10-06T04:09:14.749Z,81.05
2022-10-06T04:10:10.129Z,79.97
2022-10-06T04:11:10.151Z,78.91
2022-10-06T04:12:10.106Z,77.45
2022-10-06T04:13:10.078Z,76.82
2022-10-06T04:14:10.106Z,76.39
2022-10-06T04:15:10.075Z,75.91
2022-10-06T04:16:10.085Z,75.84
2022-10-06T04:17:10.031Z,75.84
2022-10-06T04:18:10.022Z,76.82
2022-10-06T04:19:10.024Z,78.69
2022-10-06T04:20:10.003Z,80.28
2022-10-06T04:21:09.982Z,81.92
2022-10-06T04:22:09.967Z,84.23
2022-10-06T04:23:09.955Z,86.40
2022-10-06T04:24:10.007Z,90.22
2022-10-06T04:25:09.952Z,93.34
2022-10-06T04:26:09.972Z,94.47
2022-10-06T04:27:09.919Z,97.16
2022-10-06T04:28:09.925Z,99.52
2022-10-06T04:29:09.906Z,103.71
2022-10-06T04:30:09.898Z,117.54
2022-10-06T04:31:09.941Z,131.48
2022-10-06T04:32:09.866Z,155.52
2022-10-06T04:33:09.837Z,186.43
2022-10-06T04:34:09.811Z,222.89
2022-10-06T04:35:09.824Z,259.82
2022-10-06T04:36:09.850Z,307.63
2022-10-06T04:37:09.769Z,349.77
2022-10-06T04:38:09.755Z,385.11
2022-10-06T04:39:09.750Z,421.76
2022-10-06T04:40:09.761Z,461.92
2022-10-06T04:41:09.716Z,491.43
2022-10-06T04:42:09.724Z,505.92
2022-10-06T04:43:09.709Z,553.62
2022-10-06T04:44:09.714Z,580.01
2022-10-06T04:45:09.693Z,603.54
2022-10-06T04:46:37.698Z,615.76
2022-10-06T04:47:09.663Z,616.33
2022-10-06T04:48:10.280Z,628.48
2022-10-06T04:49:12.276Z,641.12
2022-10-06T04:50:09.645Z,662.05
2022-10-06T04:51:09.581Z,664.02
2022-10-06T04:52:09.574Z,694.33
2022-10-06T04:53:09.556Z,708.29
2022-10-06T04:54:09.552Z,718.94
2022-10-06T04:55:09.550Z,727.53
2022-10-06T04:56:09.521Z,721.26
2022-10-06T04:57:09.505Z,745.36
2022-10-06T04:58:09.516Z,743.70
2022-10-06T04:59:09.505Z,740.41
2022-10-06T05:00:14.041Z,756.63
2022-10-06T05:01:09.503Z,756.21
2022-10-06T05:02:09.487Z,749.44
2022-10-06T05:03:09.426Z,762.23
2022-10-06T05:04:09.415Z,769.67
2022-10-06T05:05:09.450Z,778.16
2022-10-06T05:06:09.412Z,791.49
2022-10-06T05:07:09.385Z,803.84
2022-10-06T05:08:09.368Z,803.36
2022-10-06T05:09:09.366Z,799.52
2022-10-06T05:10:09.363Z,807.23
2022-10-06T05:11:11.639Z,809.18
2022-10-06T05:12:09.360Z,795.72
2022-10-06T05:13:09.325Z,795.72
2022-10-06T05:14:09.294Z,809.18
2022-10-06T05:15:09.266Z,793.84
2022-10-06T05:16:09.375Z,790.09
2022-10-06T05:17:09.249Z,788.70
2022-10-06T05:18:09.260Z,783.17
2022-10-06T05:19:09.209Z,787.31
2022-10-06T05:20:09.217Z,786.39
2022-10-06T05:21:09.221Z,784.08
2022-10-06T05:22:09.219Z,778.62
2022-10-06T05:23:09.191Z,779.98
2022-10-06T05:24:09.186Z,783.62
2022-10-06T05:25:09.132Z,776.36
2022-10-06T05:26:09.161Z,775.01
2022-10-06T05:27:09.128Z,771.89
2022-10-06T05:28:09.222Z,771.89
2022-10-06T05:29:09.139Z,774.57
2022-10-06T05:30:09.064Z,774.12
2022-10-06T05:31:09.051Z,776.36
2022-10-06T05:32:09.158Z,774.57
2022-10-06T05:33:09.055Z,769.67
2022-10-06T05:34:09.059Z,757.49
2022-10-06T05:35:09.049Z,763.10
2022-10-06T05:36:09.008Z,759.64
2022-10-06T05:37:08.978Z,758.35
2022-10-06T05:38:08.968Z,761.80
2022-10-06T05:39:08.991Z,762.23
2022-10-06T05:40:08.952Z,767.03
2022-10-06T05:41:08.960Z,771.45
2022-10-06T05:42:08.923Z,765.71
2022-10-06T05:43:08.913Z,771.89
2022-10-06T05:44:08.921Z,767.91
2022-10-06T05:45:08.888Z,769.67
2022-10-06T05:46:08.964Z,767.91
2022-10-06T05:47:08.860Z,772.78
2022-10-06T05:48:08.855Z,779.98
2022-10-06T05:49:08.837Z,779.98
2022-10-06T05:50:08.823Z,783.17
2022-10-06T05:51:08.820Z,784.54
2022-10-06T05:52:08.814Z,784.08
2022-10-06T05:53:08.792Z,792.43
2022-10-06T05:54:08.770Z,780.43
2022-10-06T05:55:08.750Z,771.45
2022-10-06T05:56:08.751Z,771.89
2022-10-06T05:57:08.736Z,778.16
2022-10-06T05:58:08.700Z,776.81
2022-10-06T05:59:08.681Z,779.98
2022-10-06T06:00:08.726Z,732.31
2022-10-06T06:01:08.678Z,722.04
2022-10-06T06:02:08.737Z,737.15
2022-10-06T06:03:08.663Z,751.96
2022-10-06T06:04:08.654Z,757.06
2022-10-06T06:05:08.637Z,765.28
2022-10-06T06:06:08.597Z,766.59
2022-10-06T06:07:08.603Z,767.91
2022-10-06T06:08:08.600Z,768.35
2022-10-06T06:09:08.559Z,765.28
2022-10-06T06:10:08.545Z,763.53
2022-10-06T06:11:08.542Z,764.84
2022-10-06T06:12:08.533Z,757.49
2022-10-06T06:13:08.499Z,757.06
2022-10-06T06:14:08.494Z,754.08
2022-10-06T06:15:08.496Z,754.50
2022-10-06T06:16:08.536Z,755.78
2022-10-06T06:17:08.463Z,752.81
2022-10-06T06:18:08.454Z,744.53
2022-10-06T06:19:08.451Z,742.05
2022-10-06T06:20:08.432Z,739.59
2022-10-06T06:21:08.423Z,724.38
2022-10-06T06:22:08.414Z,717.40
2022-10-06T06:23:08.391Z,729.12
2022-10-06T06:24:08.384Z,737.96
2022-10-06T06:25:08.345Z,750.28
2022-10-06T06:26:08.342Z,748.18
2022-10-06T06:27:08.339Z,754.50
2022-10-06T06:28:08.408Z,763.10
2022-10-06T06:29:08.313Z,770.56
2022-10-06T06:30:08.306Z,770.56
2022-10-06T06:31:08.340Z,775.01
2022-10-06T06:32:08.281Z,774.57
2022-10-06T06:33:08.300Z,769.67
2022-10-06T06:34:08.268Z,772.78
2022-10-06T06:35:08.216Z,771.89
2022-10-06T06:36:08.245Z,775.91
2022-10-06T06:37:12.849Z,788.70
2022-10-06T06:38:08.213Z,793.84
2022-10-06T06:39:08.172Z,792.90
2022-10-06T06:40:08.197Z,810.65
2022-10-06T06:41:08.177Z,833.85
2022-10-06T06:42:08.154Z,850.79
2022-10-06T06:43:08.119Z,848.64
2022-10-06T06:44:08.162Z,849.18
2022-10-06T06:45:08.108Z,844.36
2022-10-06T06:46:08.191Z,843.30
2022-10-06T06:47:08.080Z,861.74
2022-10-06T06:48:08.048Z,867.31
2022-10-06T06:49:08.053Z,871.26
2022-10-06T06:50:08.058Z,871.26
2022-10-06T06:51:08.039Z,876.39
2022-10-06T06:52:08.020Z,878.69
2022-10-06T06:53:08.255Z,871.83
2022-10-06T06:54:08.002Z,878.69
2022-10-06T06:55:07.983Z,874.10
2022-10-06T06:56:07.950Z,865.07
2022-10-06T06:57:07.939Z,859.53
2022-10-06T06:58:07.955Z,847.03
2022-10-06T06:59:07.955Z,855.68
2022-10-06T07:00:07.923Z,838.55
2022-10-06T07:01:07.972Z,841.18
2022-10-06T07:02:07.946Z,838.02
2022-10-06T07:03:07.873Z,845.96
2022-10-06T07:04:07.863Z,853.50
2022-10-06T07:05:07.828Z,858.42
2022-10-06T07:06:07.857Z,870.13
2022-10-06T07:07:07.817Z,868.44
2022-10-06T07:08:07.794Z,872.96
2022-10-06T07:09:07.788Z,872.40
2022-10-06T07:10:07.786Z,865.63
2022-10-06T07:11:07.747Z,854.59
2022-10-06T07:12:07.759Z,845.96
2022-10-06T07:13:07.721Z,848.64
2022-10-06T07:14:07.708Z,843.83
2022-10-06T07:15:07.738Z,847.03
2022-10-06T07:16:07.781Z,847.56
2022-10-06T07:17:07.664Z,847.03
2022-10-06T07:18:07.663Z,846.49
2022-10-06T07:19:07.660Z,842.77
2022-10-06T07:20:07.651Z,847.03
2022-10-06T07:21:07.634Z,850.79
2022-10-06T07:22:07.624Z,851.88
2022-10-06T07:23:07.613Z,863.96
2022-10-06T07:24:07.581Z,870.70
2022-10-06T07:25:07.675Z,869.57
2022-10-06T07:26:07.678Z,872.40
2022-10-06T07:27:07.533Z,869.00
2022-10-06T07:28:07.688Z,860.08
2022-10-06T07:29:07.515Z,846.49
2022-10-06T07:30:07.513Z,839.07
2022-10-06T07:31:07.534Z,823.09
2022-10-06T07:32:07.485Z,824.11
2022-10-06T07:33:07.459Z,821.58
2022-10-06T07:34:07.449Z,829.72
2022-10-06T07:35:07.427Z,816.58
2022-10-06T07:36:07.413Z,821.08
2022-10-06T07:37:07.425Z,810.16
2022-10-06T07:38:07.415Z,821.58
2022-10-06T07:39:07.408Z,822.09
2022-10-06T07:40:07.406Z,839.07
2022-10-06T07:41:18.371Z,838.55
2022-10-06T07:42:07.353Z,835.41
2022-10-06T07:43:07.328Z,845.42
2022-10-06T07:44:08.266Z,858.42
2022-10-06T07:45:07.303Z,852.96
2022-10-06T07:46:07.413Z,881.58
2022-10-06T07:47:07.273Z,889.77
2022-10-06T07:48:07.299Z,907.86
2022-10-06T07:49:07.262Z,901.14
2022-10-06T07:50:07.243Z,891.55
2022-10-06T07:51:07.250Z,893.33
2022-10-06T07:52:07.214Z,893.33
2022-10-06T07:53:07.187Z,893.93
2022-10-06T07:54:07.193Z,907.86
2022-10-06T07:55:07.180Z,931.85
2022-10-06T07:56:07.194Z,931.85
2022-10-06T07:57:07.136Z,926.69
2022-10-06T07:58:07.118Z,946.33
2022-10-06T07:59:07.134Z,954.41
2022-10-06T08:00:07.112Z,975.97
2022-10-06T08:01:07.085Z,966.11
2022-10-06T08:02:07.164Z,987.47
2022-10-06T08:03:07.150Z,996.28
2022-10-06T08:04:07.149Z,1009.80
2022-10-06T08:05:07.053Z,1044.43
2022-10-06T08:06:07.045Z,1047.69
2022-10-06T08:07:07.018Z,1060.97
2022-10-06T08:08:07.007Z,1063.49
2022-10-06T08:09:06.981Z,1068.58
2022-10-06T08:10:06.975Z,1095.67
2022-10-06T08:11:06.977Z,1107.44
2022-10-06T08:12:06.995Z,1106.52
2022-10-06T08:13:06.953Z,1117.60
2022-10-06T08:14:06.921Z,1114.81
2022-10-06T08:15:07.684Z,1106.52
2022-10-06T08:16:06.932Z,1099.26
2022-10-06T08:17:06.895Z,1112.96
2022-10-06T08:18:21.305Z,1112.96
2022-10-06T08:19:06.862Z,1130.80
2022-10-06T08:20:06.839Z,1141.40
2022-10-06T08:21:06.819Z,1169.28
2022-10-06T08:22:06.801Z,1167.25
2022-10-06T08:23:06.799Z,1174.41
2022-10-06T08:24:06.777Z,1183.74
2022-10-06T08:25:07.395Z,1200.72
2022-10-06T08:26:06.767Z,1230.49
2022-10-06T08:27:06.761Z,1251.17
2022-10-06T08:28:06.740Z,1253.51
2022-10-06T08:29:06.748Z,1266.54
2022-10-06T08:30:06.707Z,1318.90
2022-10-06T08:31:06.775Z,1346.73
2022-10-06T08:32:06.705Z,1387.16
2022-10-06T08:33:06.668Z,1445.52
2022-10-06T08:34:10.128Z,1505.62
2022-10-06T08:35:06.670Z,1562.68
2022-10-06T08:36:06.636Z,1615.43
2022-10-06T08:37:19.836Z,1660.47
2022-10-06T08:38:06.597Z,1685.53
2022-10-06T08:39:06.587Z,1739.13
2022-10-06T08:40:06.579Z,1809.59
2022-10-06T08:41:06.552Z,1866.30
2022-10-06T08:42:06.579Z,1907.47
2022-10-06T08:43:06.551Z,1957.63
2022-10-06T08:44:06.510Z,2005.99
2022-10-06T08:45:06.521Z,2039.57
2022-10-06T08:46:06.516Z,2034.93
2022-10-06T08:47:06.479Z,2080.75
2022-10-06T08:48:06.484Z,2144.00
2022-10-06T08:49:06.456Z,2189.54
2022-10-06T08:50:06.457Z,2126.98
2022-10-06T08:51:06.440Z,2140.57
2022-10-06T08:52:06.426Z,2168.28
2022-10-06T08:53:06.398Z,2182.41
2022-10-06T08:54:06.410Z,2170.04
2022-10-06T08:55:06.387Z,2170.04
2022-10-06T08:56:06.356Z,2211.22
2022-10-06T08:57:06.375Z,2269.26
2022-10-06T08:58:06.353Z,2310.34
2022-10-06T08:59:06.387Z,2336.53
2022-10-06T09:00:06.304Z,2371.68
2022-10-06T09:01:06.350Z,2395.00
2022-10-06T09:02:06.349Z,2380.11
2022-10-06T09:03:06.289Z,2397.14
2022-10-06T09:04:06.267Z,2397.14
2022-10-06T09:05:06.266Z,2399.28
2022-10-06T09:06:06.227Z,2454.21
2022-10-06T09:07:11.245Z,2483.78
2022-10-06T09:08:06.228Z,2516.43
2022-10-06T09:09:06.218Z,2537.88
2022-10-06T09:10:06.194Z,2537.88
2022-10-06T09:11:06.176Z,2535.48
2022-10-06T09:12:06.170Z,2559.69
2022-10-06T09:13:06.171Z,2596.90
2022-10-06T09:14:06.115Z,2617.19
2022-10-06T09:15:06.130Z,2645.61
2022-10-06T09:16:06.155Z,2627.45
2022-10-06T09:17:06.086Z,2671.98
2022-10-06T09:18:06.093Z,2688.06
2022-10-06T09:19:09.663Z,2698.89
2022-10-06T09:20:06.060Z,2693.47
2022-10-06T09:21:06.061Z,2688.06
2022-10-06T09:22:06.053Z,2701.61
2022-10-06T09:23:06.049Z,2726.35
2022-10-06T09:24:05.988Z,2690.76
2022-10-06T09:25:06.006Z,2707.07
2022-10-06T09:26:05.992Z,2718.05
2022-10-06T09:27:05.971Z,2723.58
2022-10-06T09:28:06.017Z,2696.18
2022-10-06T09:29:05.930Z,2682.68
2022-10-06T09:30:05.934Z,2726.35
2022-10-06T09:31:05.944Z,2693.47
2022-10-06T09:32:05.897Z,2661.37
2022-10-06T09:33:05.912Z,2693.47
2022-10-06T09:34:05.880Z,2682.68
2022-10-06T09:35:05.868Z,2680.00
2022-10-06T09:36:05.833Z,2671.98
2022-10-06T09:37:05.849Z,2664.02
2022-10-06T09:38:09.053Z,2591.88
2022-10-06T09:39:05.837Z,2599.42
2022-10-06T09:40:05.832Z,2622.31
2022-10-06T09:41:05.852Z,2635.20
2022-10-06T09:42:05.793Z,2688.06
2022-10-06T09:43:05.776Z,2731.91
2022-10-06T09:44:05.758Z,2760.04
2022-10-06T09:45:05.780Z,2788.76
2022-10-06T09:46:05.792Z,2806.28
2022-10-06T09:47:05.706Z,2829.99
2022-10-06T09:48:05.711Z,2854.10
2022-10-06T09:49:05.816Z,2884.82
2022-10-06T09:50:05.719Z,2903.57
2022-10-06T09:51:05.664Z,2938.60
2022-10-06T09:52:05.639Z,2919.39
2022-10-06T09:53:05.633Z,2945.05
2022-10-06T09:54:05.623Z,2954.80
2022-10-06T09:55:05.627Z,2967.89
2022-10-06T09:56:05.581Z,2996.09
2022-10-06T09:57:05.638Z,2977.78
2022-10-06T09:58:05.608Z,2971.18
2022-10-06T09:59:05.606Z,2977.78
2022-10-06T10:00:05.533Z,2997.76
2022-10-06T10:01:05.635Z,2967.89
2022-10-06T10:02:05.500Z,2945.05
2022-10-06T10:03:05.587Z,2938.60
2022-10-06T10:04:20.023Z,2922.57
2022-10-06T10:05:05.507Z,2913.04
2022-10-06T10:06:05.450Z,2906.72
2022-10-06T10:07:05.447Z,2891.05
2022-10-06T10:08:05.417Z,2881.72
2022-10-06T10:09:05.432Z,2765.74
2022-10-06T10:10:05.400Z,2669.32
2022-10-06T10:11:05.425Z,2640.39
2022-10-06T10:12:05.414Z,2630.03
2022-10-06T10:13:05.383Z,2619.75
2022-10-06T10:14:05.349Z,2650.84
2022-10-06T10:15:05.354Z,2748.72
2022-10-06T10:16:05.386Z,2788.76
2022-10-06T10:17:05.321Z,2857.14
2022-10-06T10:18:05.327Z,2903.57
2022-10-06T10:19:05.310Z,2964.60
2022-10-06T10:20:05.297Z,2984.41
2022-10-06T10:21:05.281Z,3055.87
2022-10-06T10:22:05.313Z,3085.78
2022-10-06T10:23:05.273Z,3116.28
2022-10-06T10:24:05.238Z,3112.66
2022-10-06T10:25:05.231Z,3110.85
2022-10-06T10:26:05.191Z,3059.36
2022-10-06T10:27:05.201Z,3105.45
2022-10-06T10:28:05.232Z,3129.01
2022-10-06T10:29:05.189Z,3127.19
2022-10-06T10:30:05.154Z,3186.68
2022-10-06T10:31:05.187Z,3240.63
2022-10-06T10:32:05.140Z,3246.52
2022-10-06T10:33:05.117Z,3266.30
2022-10-06T10:34:13.058Z,3280.29
2022-10-06T10:35:05.124Z,3274.28
2022-10-06T10:36:05.097Z,3238.67
2022-10-06T10:37:05.134Z,3262.32
2022-10-06T10:38:05.081Z,3292.38
2022-10-06T10:39:05.030Z,3276.28
2022-10-06T10:40:05.031Z,3298.46
2022-10-06T10:41:05.037Z,3371.07
2022-10-06T10:42:05.014Z,3435.90
2022-10-06T10:43:05.004Z,3462.53
2022-10-06T10:44:04.984Z,3414.01
2022-10-06T10:45:04.971Z,3438.10
2022-10-06T10:46:04.963Z,3476.00
2022-10-06T10:47:05.009Z,3476.00
2022-10-06T10:48:04.909Z,3455.83
2022-10-06T10:49:04.927Z,3476.00
2022-10-06T10:50:04.922Z,3433.70
2022-10-06T10:51:04.879Z,3453.61
2022-10-06T10:52:04.924Z,3467.01
2022-10-06T10:53:04.893Z,3494.13
2022-10-06T10:54:04.856Z,3519.37
2022-10-06T10:55:04.895Z,3496.41
2022-10-06T10:56:04.835Z,3521.68
2022-10-06T10:57:04.820Z,3542.63
2022-10-06T10:58:04.793Z,3563.83
2022-10-06T10:59:04.778Z,3533.29
2022-10-06T11:00:04.753Z,3526.31
2022-10-06T11:01:04.791Z,3568.57
2022-10-06T11:02:04.964Z,3624.07
2022-10-06T11:03:04.720Z,3636.36
2022-10-06T11:04:04.738Z,3686.38
2022-10-06T11:05:04.713Z,3701.66
2022-10-06T11:06:04.688Z,3785.31
2022-10-06T11:07:04.689Z,3748.25
2022-10-06T11:08:04.683Z,3737.80
2022-10-06T11:09:04.679Z,3735.19
2022-10-06T11:10:04.682Z,3719.64
2022-10-06T11:11:04.694Z,3761.40
2022-10-06T11:12:04.627Z,3748.25
2022-10-06T11:13:04.648Z,3732.59
2022-10-06T11:14:04.595Z,3729.99
2022-10-06T11:15:04.591Z,3681.32
2022-10-06T11:16:04.606Z,3609.43
2022-10-06T11:17:04.578Z,3498.69
2022-10-06T11:18:04.546Z,3377.44
2022-10-06T11:19:04.574Z,3316.83
2022-10-06T11:20:04.518Z,3262.32
2022-10-06T11:21:04.508Z,3274.28
2022-10-06T11:22:04.568Z,3270.29
2022-10-06T11:23:04.517Z,3240.63
2022-10-06T11:24:04.450Z,3167.85
2022-10-06T11:25:04.521Z,3213.43
2022-10-06T11:26:04.421Z,3292.38
2022-10-06T11:27:04.417Z,3354.19
2022-10-06T11:28:04.456Z,3401.01
2022-10-06T11:29:04.420Z,3416.19
2022-10-06T11:30:04.405Z,3451.38
2022-10-06T11:31:04.410Z,3500.98
2022-10-06T11:32:04.406Z,3554.38
2022-10-06T11:33:04.381Z,3563.83
2022-10-06T11:34:04.344Z,3533.29
2022-10-06T11:35:04.311Z,3411.84
2022-10-06T11:36:04.289Z,3388.12
2022-10-06T11:37:04.285Z,3343.73
2022-10-06T11:38:04.265Z,3366.83
2022-10-06T11:39:04.309Z,3398.86
2022-10-06T11:40:04.247Z,3388.12
2022-10-06T11:41:09.322Z,3446.95
2022-10-06T11:42:04.225Z,3440.31
2022-10-06T11:43:04.232Z,3482.78
2022-10-06T11:44:04.200Z,3592.49
2022-10-06T11:45:04.195Z,3609.43
2022-10-06T11:46:04.295Z,3646.26
2022-10-06T11:47:04.152Z,3619.18
2022-10-06T11:48:04.167Z,3653.72
2022-10-06T11:49:04.144Z,3681.32
2022-10-06T11:50:04.181Z,3633.90
2022-10-06T11:51:04.098Z,3656.21
2022-10-06T11:52:07.218Z,3616.73
2022-10-06T11:53:04.183Z,3590.09
2022-10-06T11:54:04.089Z,3582.89
2022-10-06T11:55:04.055Z,3594.90
2022-10-06T11:56:04.062Z,3607.00
2022-10-06T11:57:04.045Z,3537.95
2022-10-06T11:58:08.772Z,3563.83
2022-10-06T11:59:04.005Z,3590.09
2022-10-06T12:00:03.988Z,3614.29
2022-10-06T12:01:03.994Z,3661.20
2022-10-06T12:02:04.057Z,3724.81
2022-10-06T12:03:04.028Z,3673.75
2022-10-06T12:04:04.189Z,3717.06
2022-10-06T12:05:03.919Z,3691.46
2022-10-06T12:06:03.941Z,3711.91
2022-10-06T12:07:03.907Z,3704.22
2022-10-06T12:08:03.904Z,3719.64
2022-10-06T12:09:03.908Z,3756.13
2022-10-06T12:10:03.858Z,3771.99
2022-10-06T12:11:03.880Z,3766.69
2022-10-06T12:12:03.848Z,3782.64
2022-10-06T12:13:09.318Z,3756.13
2022-10-06T12:16:55.264Z,3790.66
2022-10-06T12:17:19.055Z,3892.52
2022-10-06T12:17:24.229Z,4171.21
2022-10-06T12:18:23.660Z,4126.25
2022-10-06T12:19:23.647Z,4076.04
2022-10-06T12:20:23.631Z,4072.95
2022-10-06T12:21:23.597Z,4076.04
2022-10-06T12:22:23.610Z,4048.34
2022-10-06T12:23:23.586Z,4066.77
2022-10-06T12:24:23.560Z,4060.61
2022-10-06T12:25:23.551Z,4000.00